Strona główna
METAR-TAF:

METAR-TAF

Lotnisko :

John H. Batten Airport

Racine, Wisconsin, Stany Zjednoczone

Szerokość geograficzna: 42-45-31N, Długość geograficzna: 087-49-04W, wysokość: 205 m

Aktualna obserwacja pogody

Raport powstał 34 minut temu, godzina 12:53 UTC
Wiatr 9 kt od południowy wschód
Temperatura 21°C
Wilgotność 60%
Ciśnienie 1027 hPa
Widzialność: 16.1 km
Mało chmury na wysokości 6000 ft

METAR: KRAC 241253Z AUTO 13009KT 10SM FEW060 21/13 A3032 RMK AO2 SLP264 T02060133

czas: 08:27 (13:27 UTC)


TAF: brakujący

Obserwacja i prognoza pogody dla ponad 4000 lotnisk (raport METAR i TAF).

Dostępne stacje oznaczono żółtymi i czerwonymi punktami na mapie.

Najedź kursorem aby zobaczyć nazwę stacji.

Kliknij aby zobaczyć obserwacje i prognozy pogody.

Aby zmienić mapę: kliknij na zielony przycisk z czarnym krzyżykiem, aby powiększyć; na zielony przycisk z myślnikiem, aby pomniejszyć; na zielone strzałki, aby przejść do map sąsiednich.


METAR-TAF: